createdAt,value
2022-09-15T00:01:13.782Z,1.70
2022-09-15T00:03:43.419Z,1.60
2022-09-15T00:06:12.108Z,2.35
2022-09-15T00:08:40.658Z,2.38
2022-09-15T00:11:11.160Z,1.38
2022-09-15T00:13:40.976Z,1.65
2022-09-15T00:16:13.631Z,1.70
2022-09-15T00:18:45.982Z,2.15
2022-09-15T00:21:17.987Z,0.93
2022-09-15T00:23:46.317Z,1.10
2022-09-15T00:26:17.492Z,2.10
2022-09-15T00:28:45.866Z,1.50
2022-09-15T00:31:16.258Z,1.52
2022-09-15T00:33:47.899Z,1.30
2022-09-15T00:36:16.733Z,1.52
2022-09-15T00:38:45.388Z,2.60
2022-09-15T00:41:16.907Z,1.48
2022-09-15T00:43:51.691Z,1.98
2022-09-15T00:46:22.026Z,2.15
2022-09-15T00:48:56.912Z,2.08
2022-09-15T00:51:31.243Z,2.42
2022-09-15T00:54:01.879Z,1.48
2022-09-15T00:56:31.530Z,3.15
2022-09-15T00:59:03.665Z,1.58
2022-09-15T01:01:33.527Z,2.20
2022-09-15T01:06:36.389Z,2.92
2022-09-15T01:09:09.170Z,2.63
2022-09-15T01:11:37.827Z,1.73
2022-09-15T01:14:06.252Z,1.73
2022-09-15T01:16:43.966Z,2.70
2022-09-15T01:19:59.452Z,1.85
2022-09-15T01:22:37.696Z,1.77
2022-09-15T01:25:10.574Z,1.60
2022-09-15T01:28:16.348Z,1.92
2022-09-15T01:30:49.759Z,2.13
2022-09-15T01:33:29.052Z,2.30
2022-09-15T01:36:15.443Z,1.85
2022-09-15T01:39:01.026Z,2.20
2022-09-15T01:41:32.183Z,1.50
2022-09-15T01:44:07.569Z,2.00
2022-09-15T01:46:42.900Z,2.88
2022-09-15T01:49:14.796Z,1.77
2022-09-15T01:51:45.145Z,2.53
2022-09-15T01:54:15.906Z,4.03
2022-09-15T01:56:44.929Z,2.88
2022-09-15T01:59:13.617Z,1.70
2022-09-15T02:01:49.718Z,2.38
2022-09-15T02:04:23.992Z,1.52
2022-09-15T02:06:56.620Z,2.45
2022-09-15T02:09:29.303Z,2.03
2022-09-15T02:12:04.214Z,2.42
2022-09-15T02:14:43.136Z,2.35
2022-09-15T02:17:16.659Z,1.50
2022-09-15T02:19:48.768Z,2.75
2022-09-15T02:22:23.437Z,2.10
2022-09-15T02:24:59.030Z,1.90
2022-09-15T02:27:31.056Z,2.03
2022-09-15T02:30:05.917Z,1.77
2022-09-15T02:32:38.037Z,2.33
2022-09-15T02:35:10.026Z,1.70
2022-09-15T02:37:39.039Z,1.80
2022-09-15T02:40:08.488Z,2.05
2022-09-15T02:42:37.217Z,2.63
2022-09-15T02:45:06.128Z,2.13
2022-09-15T02:47:35.753Z,2.10
2022-09-15T02:50:03.904Z,1.58
2022-09-15T02:52:32.076Z,3.15
2022-09-15T02:55:00.849Z,2.20
2022-09-15T02:57:28.973Z,2.30
2022-09-15T03:00:16.781Z,2.58
2022-09-15T03:02:48.625Z,6.47
2022-09-15T03:05:17.685Z,6.18
2022-09-15T03:07:45.812Z,2.73
2022-09-15T03:10:14.802Z,3.10
2022-09-15T03:12:44.811Z,3.92
2022-09-15T03:15:14.427Z,2.78
2022-09-15T03:17:44.731Z,4.47
2022-09-15T03:20:17.582Z,2.97
2022-09-15T03:22:46.001Z,2.88
2022-09-15T03:25:14.409Z,2.70
2022-09-15T03:27:42.549Z,3.83
2022-09-15T03:30:11.724Z,6.30
2022-09-15T03:32:39.979Z,11.77
2022-09-15T03:35:09.462Z,9.35
2022-09-15T03:37:38.959Z,8.38
2022-09-15T03:40:08.526Z,10.95
2022-09-15T03:42:36.737Z,7.03
2022-09-15T03:45:05.325Z,5.72
2022-09-15T03:47:33.857Z,5.63
2022-09-15T03:50:01.962Z,5.65
2022-09-15T03:52:32.510Z,5.65
2022-09-15T03:55:02.581Z,4.85
2022-09-15T03:57:30.701Z,4.65
2022-09-15T03:59:58.783Z,4.70
2022-09-15T04:02:27.053Z,4.28
2022-09-15T04:04:55.261Z,5.47
2022-09-15T04:07:23.379Z,4.45
2022-09-15T04:09:51.468Z,4.28
2022-09-15T04:12:20.992Z,4.80
2022-09-15T04:14:49.197Z,5.70
2022-09-15T04:17:17.311Z,4.22
2022-09-15T04:19:45.383Z,3.20
2022-09-15T04:22:17.655Z,3.25
2022-09-15T04:24:48.048Z,2.65
2022-09-15T04:27:16.525Z,3.03
2022-09-15T04:29:46.437Z,3.17
2022-09-15T04:34:42.430Z,3.53
2022-09-15T04:37:11.573Z,3.85
2022-09-15T04:39:39.876Z,1.90
2022-09-15T04:42:08.084Z,3.22
2022-09-15T04:44:36.183Z,3.10
2022-09-15T04:47:06.303Z,3.28
2022-09-15T04:49:34.716Z,3.97
2022-09-15T04:52:06.630Z,2.22
2022-09-15T04:54:37.218Z,2.25
2022-09-15T04:57:05.659Z,2.40
2022-09-15T04:59:33.932Z,3.35
2022-09-15T05:02:02.087Z,1.98
2022-09-15T05:04:31.655Z,4.80
2022-09-15T05:06:59.915Z,7.25
2022-09-15T05:09:29.612Z,9.68
2022-09-15T05:11:57.792Z,7.65
2022-09-15T05:14:25.935Z,7.45
2022-09-15T05:16:54.023Z,10.88
2022-09-15T05:19:22.308Z,8.65
2022-09-15T05:21:51.785Z,10.02
2022-09-15T05:24:20.063Z,10.73
2022-09-15T05:26:48.145Z,10.02
2022-09-15T05:29:16.378Z,7.78
2022-09-15T05:31:44.556Z,8.23
2022-09-15T05:34:12.707Z,7.03
2022-09-15T05:36:40.817Z,6.28
2022-09-15T05:39:10.331Z,7.97
2022-09-15T05:41:38.408Z,6.72
2022-09-15T05:44:06.514Z,5.50
2022-09-15T05:46:34.658Z,6.13
2022-09-15T05:49:02.848Z,5.53
2022-09-15T05:51:31.035Z,4.95
2022-09-15T05:53:59.163Z,5.72
2022-09-15T05:56:28.957Z,4.85
2022-09-15T05:58:57.136Z,5.00
2022-09-15T06:01:26.993Z,5.50
2022-09-15T06:06:24.375Z,5.40
2022-09-15T06:08:58.149Z,3.88
2022-09-15T06:11:30.220Z,3.83
2022-09-15T06:14:00.999Z,4.72
2022-09-15T06:16:32.093Z,5.63
2022-09-15T06:19:01.012Z,5.10
2022-09-15T06:21:30.976Z,3.70
2022-09-15T06:26:30.242Z,3.30
2022-09-15T06:31:29.070Z,4.18
2022-09-15T06:33:58.266Z,4.78
2022-09-15T06:36:28.501Z,2.67
2022-09-15T06:38:57.320Z,3.42
2022-09-15T06:41:25.516Z,4.55
2022-09-15T06:43:55.499Z,8.10
2022-09-15T06:48:53.673Z,4.57
2022-09-15T06:51:23.647Z,5.22
2022-09-15T06:56:22.107Z,7.05
2022-09-15T06:58:50.376Z,7.90
2022-09-15T07:01:24.228Z,6.63
2022-09-15T07:03:52.709Z,4.80
2022-09-15T07:06:21.249Z,6.32
2022-09-15T07:08:50.182Z,6.35
2022-09-15T07:11:19.279Z,6.25
2022-09-15T07:13:48.257Z,6.47
2022-09-15T07:16:16.978Z,4.85
2022-09-15T07:18:46.826Z,4.88
2022-09-15T07:21:16.666Z,6.85
2022-09-15T07:23:45.253Z,3.38
2022-09-15T07:26:15.414Z,7.18
2022-09-15T07:28:45.729Z,7.35
2022-09-15T07:31:16.124Z,4.97
2022-09-15T07:33:44.299Z,6.72
2022-09-15T07:36:14.394Z,5.15
2022-09-15T07:38:44.295Z,4.32
2022-09-15T07:43:41.304Z,4.13
2022-09-15T07:46:09.600Z,6.07
2022-09-15T07:48:38.136Z,6.45
2022-09-15T07:51:06.701Z,6.20
2022-09-15T07:53:36.197Z,4.20
2022-09-15T07:56:04.611Z,4.40
2022-09-15T07:58:34.700Z,5.60
2022-09-15T08:01:04.041Z,5.45
2022-09-15T08:03:32.989Z,6.93
2022-09-15T08:06:02.211Z,3.53
2022-09-15T08:08:31.041Z,4.63
2022-09-15T08:11:00.525Z,5.63
2022-09-15T08:13:30.289Z,6.53
2022-09-15T08:15:58.534Z,5.93
2022-09-15T08:18:27.081Z,5.38
2022-09-15T08:20:55.481Z,5.97
2022-09-15T08:23:23.589Z,4.75
2022-09-15T08:25:52.013Z,2.65
2022-09-15T08:28:21.458Z,4.05
2022-09-15T08:30:49.635Z,5.75
2022-09-15T08:33:17.739Z,3.63
2022-09-15T08:35:45.844Z,6.28
2022-09-15T08:38:13.910Z,1.63
2022-09-15T08:40:46.907Z,1.73
2022-09-15T08:43:21.900Z,3.85
2022-09-15T08:45:56.080Z,2.58
2022-09-15T08:48:30.848Z,4.00
2022-09-15T08:51:02.797Z,6.38
2022-09-15T08:53:34.866Z,6.10
2022-09-15T08:56:09.987Z,4.93
2022-09-15T08:58:39.233Z,7.50
2022-09-15T09:01:23.905Z,9.00
2022-09-15T09:04:10.092Z,6.72
2022-09-15T09:06:48.594Z,4.10
2022-09-15T09:09:34.102Z,3.40
2022-09-15T09:12:22.271Z,4.38
2022-09-15T09:15:13.352Z,4.45
2022-09-15T09:18:05.205Z,3.72
2022-09-15T09:20:44.643Z,4.88
2022-09-15T09:23:16.759Z,5.22
2022-09-15T09:25:45.673Z,3.08
2022-09-15T09:28:26.194Z,9.05
2022-09-15T09:30:54.735Z,2.95
2022-09-15T09:33:30.387Z,5.22
2022-09-15T09:36:02.265Z,3.33
2022-09-15T09:38:33.227Z,1.73
2022-09-15T09:41:02.678Z,4.32
2022-09-15T09:45:59.299Z,7.70
2022-09-15T09:48:30.123Z,5.68
2022-09-15T09:50:58.630Z,5.97
2022-09-15T09:53:30.977Z,4.93
2022-09-15T09:56:18.299Z,5.32
2022-09-15T09:58:46.407Z,5.38
2022-09-15T10:01:16.955Z,4.03
2022-09-15T10:03:46.847Z,3.00
2022-09-15T10:06:17.538Z,4.88
2022-09-15T10:09:05.559Z,6.25
2022-09-15T10:11:42.847Z,4.28
2022-09-15T10:14:21.028Z,4.50
2022-09-15T10:16:59.993Z,7.65
2022-09-15T10:19:31.914Z,6.47
2022-09-15T10:22:02.056Z,3.15
2022-09-15T10:24:34.964Z,4.68
2022-09-15T10:27:27.832Z,2.90
2022-09-15T10:29:56.892Z,2.33
2022-09-15T10:32:27.886Z,2.42
2022-09-15T10:35:02.784Z,4.80
2022-09-15T10:37:36.104Z,5.20
2022-09-15T10:40:22.601Z,4.15
2022-09-15T10:42:53.219Z,5.50
2022-09-15T10:45:33.664Z,5.13
2022-09-15T10:48:46.257Z,5.05
2022-09-15T10:51:37.112Z,5.05
2022-09-15T10:54:34.333Z,2.83
2022-09-15T10:57:09.232Z,2.60
2022-09-15T10:59:47.743Z,3.72
2022-09-15T11:02:40.340Z,4.47
2022-09-15T11:05:25.642Z,4.13
2022-09-15T11:08:21.229Z,3.47
2022-09-15T11:10:56.033Z,3.63
2022-09-15T11:13:31.811Z,6.25
2022-09-15T11:16:10.689Z,7.38
2022-09-15T11:18:55.725Z,4.25
2022-09-15T11:21:30.928Z,4.43
2022-09-15T11:24:23.374Z,7.35
2022-09-15T11:26:54.572Z,5.78
2022-09-15T11:29:28.004Z,5.03
2022-09-15T11:34:40.176Z,4.50
2022-09-15T11:37:13.513Z,3.13
2022-09-15T11:39:50.034Z,3.80
2022-09-15T11:42:26.163Z,3.78
2022-09-15T11:44:56.382Z,6.07
2022-09-15T11:47:29.944Z,2.42
2022-09-15T11:50:03.154Z,3.85
2022-09-15T11:52:43.820Z,3.03
2022-09-15T11:55:22.790Z,2.35
2022-09-15T11:58:00.240Z,3.10
2022-09-15T12:00:28.594Z,4.50
2022-09-15T12:03:07.659Z,2.40
2022-09-15T12:05:41.371Z,2.67
2022-09-15T12:08:16.609Z,4.82
2022-09-15T12:10:52.279Z,2.92
2022-09-15T12:13:22.401Z,10.77
2022-09-15T12:15:51.756Z,4.22
2022-09-15T12:18:39.043Z,2.03
2022-09-15T12:23:44.874Z,1.52
2022-09-15T12:26:20.234Z,3.35
2022-09-15T12:29:02.525Z,2.15
2022-09-15T12:31:36.491Z,4.05
2022-09-15T12:34:10.088Z,2.75
2022-09-15T12:36:42.251Z,2.35
2022-09-15T12:39:26.596Z,4.93
2022-09-15T12:42:05.105Z,3.22
2022-09-15T12:44:37.087Z,2.90
2022-09-15T12:47:08.091Z,1.90
2022-09-15T12:49:44.546Z,1.77
2022-09-15T12:52:13.718Z,3.17
2022-09-15T12:54:45.268Z,2.08
2022-09-15T12:57:23.387Z,2.78
2022-09-15T12:59:51.533Z,3.33
2022-09-15T13:02:44.830Z,3.83
2022-09-15T13:05:14.293Z,7.05
2022-09-15T13:07:57.068Z,3.53
2022-09-15T13:10:34.259Z,3.78
2022-09-15T13:13:21.343Z,6.70
2022-09-15T13:15:52.719Z,7.75
2022-09-15T13:18:22.634Z,4.82
2022-09-15T13:20:55.658Z,5.00
2022-09-15T13:23:27.241Z,6.15
2022-09-15T13:25:58.808Z,7.05
2022-09-15T13:28:28.879Z,7.68
2022-09-15T13:31:17.374Z,5.35
2022-09-15T13:40:28.554Z,5.23
2022-09-15T13:43:10.688Z,5.88
2022-09-15T13:45:51.714Z,5.82
2022-09-15T13:48:57.063Z,9.52
2022-09-15T13:51:27.836Z,6.30
2022-09-15T13:53:59.690Z,4.83
2022-09-15T13:56:30.025Z,3.42
2022-09-15T13:59:08.579Z,2.20
2022-09-15T14:01:42.957Z,2.88
2022-09-15T14:04:16.666Z,1.77
2022-09-15T14:06:46.915Z,3.67
2022-09-15T14:09:17.689Z,2.97
2022-09-15T14:11:50.597Z,4.90
2022-09-15T14:14:33.904Z,10.97
2022-09-15T14:17:04.206Z,4.20
2022-09-15T14:19:34.802Z,4.57
2022-09-15T14:22:04.283Z,4.93
2022-09-15T14:24:33.206Z,3.33
2022-09-15T14:27:08.435Z,1.90
2022-09-15T14:29:41.291Z,2.85
2022-09-15T14:32:15.734Z,2.63
2022-09-15T14:34:45.303Z,2.80
2022-09-15T14:37:20.713Z,7.28
2022-09-15T14:39:54.823Z,4.95
2022-09-15T14:42:27.598Z,3.42
2022-09-15T14:47:45.780Z,2.78
2022-09-15T14:50:16.670Z,2.35
2022-09-15T14:52:48.217Z,3.70
2022-09-15T14:55:20.439Z,1.20
2022-09-15T14:57:55.192Z,1.95
2022-09-15T15:00:28.263Z,3.28
2022-09-15T15:03:12.533Z,3.30
2022-09-15T15:05:46.858Z,1.98
2022-09-15T15:08:25.421Z,2.45
2022-09-15T15:10:55.507Z,2.25
2022-09-15T15:13:23.769Z,2.65
2022-09-15T15:15:52.147Z,1.88
2022-09-15T15:18:37.140Z,2.30
2022-09-15T15:21:05.303Z,4.50
2022-09-15T15:23:33.877Z,3.38
2022-09-15T15:26:34.008Z,3.03
2022-09-15T15:29:03.525Z,3.15
2022-09-15T15:31:32.242Z,2.20
2022-09-15T15:34:05.405Z,2.40
2022-09-15T15:36:35.636Z,3.70
2022-09-15T15:39:06.106Z,2.42
2022-09-15T15:41:36.775Z,2.42
2022-09-15T15:44:08.893Z,4.70
2022-09-15T15:47:02.752Z,2.60
2022-09-15T15:49:33.598Z,1.63
2022-09-15T15:52:02.605Z,1.83
2022-09-15T15:54:30.695Z,4.13
2022-09-15T15:57:22.943Z,2.08
2022-09-15T15:59:55.220Z,1.40
2022-09-15T16:02:23.831Z,1.77
2022-09-15T16:04:54.017Z,1.23
2022-09-15T16:07:24.160Z,1.90
2022-09-15T16:09:54.207Z,1.42
2022-09-15T16:12:22.467Z,1.77
2022-09-15T16:14:50.619Z,1.03
2022-09-15T16:17:18.699Z,1.63
2022-09-15T16:19:46.825Z,3.47
2022-09-15T16:22:21.622Z,7.03
2022-09-15T16:24:49.746Z,6.03
2022-09-15T16:27:19.193Z,4.47
2022-09-15T16:29:48.121Z,4.10
2022-09-15T16:32:20.009Z,2.75
2022-09-15T16:34:49.212Z,4.07
2022-09-15T16:37:18.687Z,3.10
2022-09-15T16:39:46.789Z,4.82
2022-09-15T16:42:14.914Z,3.30
2022-09-15T16:44:43.989Z,6.22
2022-09-15T16:47:12.197Z,3.33
2022-09-15T16:49:40.295Z,6.70
2022-09-15T16:52:12.729Z,4.33
2022-09-15T16:54:42.220Z,3.40
2022-09-15T16:57:10.320Z,3.10
2022-09-15T16:59:38.397Z,3.97
2022-09-15T17:02:13.507Z,4.10
2022-09-15T17:04:41.617Z,3.95
2022-09-15T17:07:09.712Z,3.55
2022-09-15T17:09:37.782Z,3.83
2022-09-15T17:12:09.509Z,2.42
2022-09-15T17:14:37.676Z,3.17
2022-09-15T17:17:05.847Z,2.10
2022-09-15T17:19:33.971Z,1.73
2022-09-15T17:22:03.552Z,2.70
2022-09-15T17:24:31.656Z,1.77
2022-09-15T17:26:59.813Z,2.83
2022-09-15T17:29:29.383Z,2.45
2022-09-15T17:31:57.509Z,1.88
2022-09-15T17:34:25.592Z,3.85
2022-09-15T17:36:53.717Z,1.75
2022-09-15T17:39:21.796Z,3.42
2022-09-15T17:41:49.953Z,5.17
2022-09-15T17:44:18.056Z,6.03
2022-09-15T17:46:47.675Z,4.85
2022-09-15T17:49:16.155Z,4.23
2022-09-15T17:51:44.320Z,5.00
2022-09-15T17:54:13.348Z,6.03
2022-09-15T17:56:42.019Z,5.07
2022-09-15T17:59:13.079Z,4.67
2022-09-15T18:01:44.776Z,5.75
2022-09-15T18:04:14.594Z,3.88
2022-09-15T18:06:45.581Z,4.88
2022-09-15T18:09:14.758Z,5.78
2022-09-15T18:11:44.265Z,4.35
2022-09-15T18:14:12.400Z,4.10
2022-09-15T18:16:41.661Z,4.53
2022-09-15T18:19:09.781Z,3.88
2022-09-15T18:21:39.367Z,2.83
2022-09-15T18:24:08.317Z,3.15
2022-09-15T18:26:36.913Z,3.77
2022-09-15T18:29:05.021Z,3.03
2022-09-15T18:31:33.203Z,3.17
2022-09-15T18:34:01.408Z,4.10
2022-09-15T18:36:30.145Z,2.20
2022-09-15T18:39:00.919Z,4.32
2022-09-15T18:41:29.077Z,2.28
2022-09-15T18:43:57.163Z,2.75
2022-09-15T18:46:25.361Z,1.73
2022-09-15T18:48:53.686Z,4.05
2022-09-15T18:51:29.203Z,3.00
2022-09-15T18:54:04.599Z,1.73
2022-09-15T18:56:32.720Z,2.70
2022-09-15T18:59:02.077Z,2.95
2022-09-15T19:01:31.240Z,2.50
2022-09-15T19:03:59.380Z,3.17
2022-09-15T19:06:27.582Z,2.50
2022-09-15T19:08:55.679Z,3.15
2022-09-15T19:11:25.186Z,2.45
2022-09-15T19:13:54.049Z,1.70
2022-09-15T19:16:34.660Z,2.35
2022-09-15T19:19:11.683Z,2.13
2022-09-15T19:21:39.782Z,2.22
2022-09-15T19:24:07.963Z,4.28
2022-09-15T19:26:37.425Z,1.80
2022-09-15T19:29:06.538Z,2.28
2022-09-15T19:31:38.514Z,2.37
2022-09-15T19:34:09.327Z,1.70
2022-09-15T19:36:37.403Z,2.33
2022-09-15T19:39:06.143Z,1.55
2022-09-15T19:41:34.292Z,3.13
2022-09-15T19:44:04.671Z,7.50
2022-09-15T19:46:32.787Z,6.93
2022-09-15T19:49:02.695Z,7.65
2022-09-15T19:51:31.425Z,10.32
2022-09-15T19:54:00.824Z,8.10
2022-09-15T19:56:29.882Z,12.15
2022-09-15T19:59:00.267Z,6.63
2022-09-15T20:01:32.677Z,6.78
2022-09-15T20:04:02.189Z,6.23
2022-09-15T20:06:32.637Z,5.05
2022-09-15T20:09:01.240Z,4.50
2022-09-15T20:11:30.203Z,5.80
2022-09-15T20:13:58.628Z,9.73
2022-09-15T20:16:26.732Z,5.40
2022-09-15T20:18:56.560Z,11.50
2022-09-15T20:21:48.802Z,6.83
2022-09-15T20:24:15.547Z,9.98
2022-09-15T20:26:43.679Z,9.80
2022-09-15T20:29:12.132Z,5.40
2022-09-15T20:31:40.342Z,8.85
2022-09-15T20:34:10.032Z,9.43
2022-09-15T20:36:39.812Z,7.47
2022-09-15T20:39:13.072Z,6.38
2022-09-15T20:41:44.936Z,8.75
2022-09-15T20:44:13.368Z,7.32
2022-09-15T20:46:41.776Z,4.28
2022-09-15T20:49:12.110Z,6.78
2022-09-15T20:51:40.219Z,3.70
2022-09-15T20:54:08.361Z,8.98
2022-09-15T20:56:36.730Z,7.10
2022-09-15T20:59:06.035Z,6.03
2022-09-15T21:01:36.712Z,1.77
2022-09-15T21:04:05.881Z,7.38
2022-09-15T21:06:35.947Z,2.43
2022-09-15T21:09:05.232Z,9.10
2022-09-15T21:11:33.668Z,4.95
2022-09-15T21:14:03.243Z,5.57
2022-09-15T21:16:35.715Z,3.13
2022-09-15T21:19:04.233Z,3.40
2022-09-15T21:21:33.856Z,2.72
2022-09-15T21:24:05.426Z,3.30
2022-09-15T21:26:35.517Z,4.70
2022-09-15T21:29:04.241Z,7.10
2022-09-15T21:31:33.936Z,2.58
2022-09-15T21:34:02.267Z,4.10
2022-09-15T21:36:31.590Z,4.10
2022-09-15T21:39:02.717Z,3.08
2022-09-15T21:41:32.213Z,2.45
2022-09-15T21:44:01.110Z,7.07
2022-09-15T21:46:31.423Z,2.97
2022-09-15T21:49:00.924Z,3.80
2022-09-15T21:51:30.869Z,1.40
2022-09-15T21:54:00.304Z,3.28
2022-09-15T21:56:29.851Z,3.65
2022-09-15T21:58:59.567Z,2.92
2022-09-15T22:01:29.878Z,4.05
2022-09-15T22:04:00.513Z,2.60
2022-09-15T22:06:31.932Z,1.05
2022-09-15T22:09:01.056Z,2.53
2022-09-15T22:11:29.180Z,1.63
2022-09-15T22:13:59.077Z,2.67
2022-09-15T22:18:55.569Z,1.90
2022-09-15T22:21:25.717Z,5.22
2022-09-15T22:23:56.311Z,1.65
2022-09-15T22:26:26.456Z,2.63
2022-09-15T22:28:56.474Z,1.92
2022-09-15T22:31:27.461Z,1.83
2022-09-15T22:33:55.821Z,1.35
2022-09-15T22:36:29.385Z,1.67
2022-09-15T22:39:03.480Z,2.90
2022-09-15T22:41:32.338Z,1.35
2022-09-15T22:44:00.442Z,3.92
2022-09-15T22:46:29.963Z,1.63
2022-09-15T22:48:58.050Z,3.28
2022-09-15T22:51:26.340Z,1.42
2022-09-15T22:53:57.344Z,2.72
2022-09-15T22:56:27.346Z,2.28
2022-09-15T22:58:56.881Z,2.00
2022-09-15T23:01:26.480Z,3.50
2022-09-15T23:03:57.475Z,2.72
2022-09-15T23:06:27.925Z,1.52
2022-09-15T23:08:58.099Z,1.55
2022-09-15T23:11:27.839Z,1.35
2022-09-15T23:13:57.065Z,2.65
2022-09-15T23:16:26.441Z,6.10
2022-09-15T23:18:56.210Z,1.25
2022-09-15T23:21:24.379Z,3.30
2022-09-15T23:23:55.090Z,3.25
2022-09-15T23:26:25.059Z,3.55
2022-09-15T23:31:22.558Z,4.10
2022-09-15T23:33:50.948Z,2.25
2022-09-15T23:36:20.625Z,2.42
2022-09-15T23:38:49.722Z,2.92
2022-09-15T23:41:18.882Z,2.63
2022-09-15T23:43:47.404Z,2.40
2022-09-15T23:46:15.799Z,2.75
2022-09-15T23:48:44.215Z,1.00
2022-09-15T23:51:12.353Z,1.40
2022-09-15T23:53:41.778Z,1.35
2022-09-15T23:56:09.963Z,0.68
2022-09-15T23:58:38.258Z,1.85
